Time;durP1;ratioP1;P1;durP2;ratioP2;P2;SDS_P1;SDS_P2;PMS_P1;PMS_P2;Temp;Humidity;BMP_temperature;BMP_pressure;BME280_temperature;BME280_humidity;BME280_pressure;Samples;Min_cycle;Max_cycle;Signal;HPM_P1;HPM_P2
2022/04/08 00:00:38;;;;;;;;;1.00;1.00;;;;;-142.59;100.00;56100.38;5091396;27;50632;-69
2022/04/08 00:03:03;;;;;;;;;1.00;0.50;;;;;-142.59;100.00;56100.38;5091317;27;49607;-69
2022/04/08 00:05:29;;;;;;;;;1.00;1.00;;;;;-142.59;100.00;56100.38;5091327;27;49924;-75
2022/04/08 00:07:54;;;;;;;;;0.50;0.00;;;;;-142.59;100.00;56100.38;5090142;27;49824;-76
2022/04/08 00:10:19;;;;;;;;;0.00;0.00;;;;;-142.59;100.00;56100.38;5089786;27;52229;-69
2022/04/08 00:12:45;;;;;;;;;1.00;1.00;;;;;-142.59;100.00;56100.38;5090742;27;49846;-69
2022/04/08 00:15:10;;;;;;;;;2.50;0.00;;;;;-142.59;100.00;56100.38;5090610;27;50085;-71
2022/04/08 00:17:36;;;;;;;;;1.50;0.50;;;;;-142.59;100.00;56100.38;5090343;27;49769;-76
2022/04/08 00:20:03;;;;;;;;;3.25;1.00;;;;;-142.59;100.00;56100.38;5090845;27;49805;-69
2022/04/08 00:22:28;;;;;;;;;1.00;0.50;;;;;-142.59;100.00;56100.38;5091098;27;49686;-68
2022/04/08 00:24:53;;;;;;;;;1.00;1.00;;;;;-142.59;100.00;56100.38;5091253;27;49940;-69
2022/04/08 00:27:19;;;;;;;;;1.00;0.75;;;;;-142.59;100.00;56100.38;5091192;27;49918;-70
2022/04/08 00:29:44;;;;;;;;;0.00;0.00;;;;;-142.59;100.00;56100.38;5091093;27;50535;-70
2022/04/08 00:32:09;;;;;;;;;1.00;1.00;;;;;-142.59;100.00;56100.38;5091067;27;49709;-69
2022/04/08 00:34:35;;;;;;;;;0.50;0.25;;;;;-142.59;100.00;56100.38;5091124;27;50244;-76
2022/04/08 00:37:00;;;;;;;;;0.00;0.00;;;;;-142.59;100.00;56100.38;5098078;27;49718;-78
2022/04/08 00:39:26;;;;;;;;;0.50;0.00;;;;;-142.59;100.00;56100.38;5090776;27;49847;-76
2022/04/08 00:41:51;;;;;;;;;0.25;0.25;;;;;-142.59;100.00;56100.38;5090445;27;49926;-70
2022/04/08 00:44:17;;;;;;;;;1.00;0.25;;;;;-142.59;100.00;56100.38;5091010;27;49986;-73
2022/04/08 00:46:43;;;;;;;;;2.75;0.75;;;;;-142.59;100.00;56100.38;5091085;27;49883;-70
2022/04/08 00:49:09;;;;;;;;;2.00;1.00;;;;;-142.59;100.00;56100.38;5090693;27;50569;-70
2022/04/08 00:51:35;;;;;;;;;2.00;0.50;;;;;-142.59;100.00;56100.38;5090964;27;49785;-70
2022/04/08 00:54:05;;;;;;;;;1.00;1.00;;;;;-142.59;100.00;56100.38;5090871;27;49812;-69
2022/04/08 00:56:31;;;;;;;;;0.00;0.00;;;;;-142.59;100.00;56100.38;5090551;27;49777;-70
2022/04/08 00:58:57;;;;;;;;;3.50;2.00;;;;;-142.59;100.00;56100.38;5089236;27;52073;-68
2022/04/08 01:01:24;;;;;;;;;0.00;0.00;;;;;-142.59;100.00;56100.38;5090700;27;49873;-69
2022/04/08 01:03:52;;;;;;;;;3.00;0.00;;;;;-142.59;100.00;56100.38;5090604;27;49716;-69
2022/04/08 01:06:22;;;;;;;;;3.25;1.00;;;;;-142.59;100.00;56100.38;5089541;27;49952;-70
2022/04/08 01:08:49;;;;;;;;;2.00;2.00;;;;;-142.59;100.00;56100.38;5090405;27;50974;-70
2022/04/08 01:11:15;;;;;;;;;1.00;0.00;;;;;-142.59;100.00;56100.38;5090611;27;49776;-69
2022/04/08 01:13:41;;;;;;;;;0.00;0.00;;;;;-142.59;100.00;56100.38;5088936;27;50015;-70
2022/04/08 01:16:07;;;;;;;;;0.75;0.75;;;;;-142.59;100.00;56100.38;5090489;27;49990;-69
2022/04/08 01:18:32;;;;;;;;;0.00;0.00;;;;;-142.59;100.00;56100.38;5090214;27;50786;-69
2022/04/08 01:20:58;;;;;;;;;0.00;0.00;;;;;-142.59;100.00;56100.38;5090465;27;50462;-69
2022/04/08 01:23:23;;;;;;;;;3.00;0.00;;;;;-142.59;100.00;56100.38;5090665;27;50262;-69
2022/04/08 01:25:49;;;;;;;;;1.00;1.00;;;;;-142.59;100.00;56100.38;5092706;27;50040;-70
2022/04/08 01:28:14;;;;;;;;;2.25;1.50;;;;;-142.59;100.00;56100.38;5093561;27;50330;-70
2022/04/08 01:30:40;;;;;;;;;0.00;0.00;;;;;-142.59;100.00;56100.38;5094099;27;49749;-69
2022/04/08 01:33:06;;;;;;;;;3.50;0.25;;;;;-142.59;100.00;56100.38;5093673;27;49734;-70
2022/04/08 01:35:33;;;;;;;;;2.00;1.00;;;;;-142.59;100.00;56100.38;5093923;27;49879;-71
2022/04/08 01:37:59;;;;;;;;;2.00;0.00;;;;;-142.59;100.00;56100.38;5093666;27;49936;-71
2022/04/08 01:40:24;;;;;;;;;1.00;1.00;;;;;-142.59;100.00;56100.38;5093732;27;49734;-70
2022/04/08 01:42:49;;;;;;;;;2.00;0.25;;;;;-142.59;100.00;56100.38;5093533;27;50228;-70
2022/04/08 01:45:15;;;;;;;;;2.00;0.50;;;;;-142.59;100.00;56100.38;5093787;27;50059;-70
2022/04/08 01:47:40;;;;;;;;;0.75;0.75;;;;;-142.59;100.00;56100.38;5093390;27;49747;-70
2022/04/08 01:50:07;;;;;;;;;0.00;0.00;;;;;-142.59;100.00;56100.38;5093542;27;49936;-70
2022/04/08 01:52:32;;;;;;;;;0.00;0.00;;;;;-142.59;100.00;56100.38;5093501;27;49861;-71
2022/04/08 01:54:58;;;;;;;;;1.25;1.00;;;;;-142.59;100.00;56100.38;5093724;27;49864;-70
2022/04/08 01:57:23;;;;;;;;;0.00;0.00;;;;;-142.59;100.00;56100.38;5092882;27;49846;-70
2022/04/08 01:59:53;;;;;;;;;0.50;0.50;;;;;-142.59;100.00;56100.38;5093373;27;49805;-70
2022/04/08 02:02:19;;;;;;;;;1.00;1.00;;;;;-142.59;100.00;56100.38;5093589;27;50017;-70
2022/04/08 02:04:44;;;;;;;;;1.00;0.25;;;;;-142.59;100.00;56100.38;5093655;27;49729;-70
2022/04/08 02:07:10;;;;;;;;;0.00;0.00;;;;;-142.59;100.00;56100.38;5093027;27;50535;-70
2022/04/08 02:09:35;;;;;;;;;0.75;0.50;;;;;-142.59;100.00;56100.38;5093220;27;49778;-70
2022/04/08 02:12:01;;;;;;;;;2.50;1.00;;;;;-142.59;100.00;56100.38;5093013;27;49790;-71
2022/04/08 02:14:26;;;;;;;;;2.25;2.00;;;;;-142.59;100.00;56100.38;5093239;27;49910;-70
2022/04/08 02:16:51;;;;;;;;;3.00;0.00;;;;;-142.59;100.00;56100.38;5093122;27;50335;-70
2022/04/08 02:19:17;;;;;;;;;1.00;1.00;;;;;-142.59;100.00;56100.38;5091957;27;50028;-71
2022/04/08 02:21:43;;;;;;;;;0.00;0.00;;;;;-142.59;100.00;56100.38;5093240;27;49859;-71
2022/04/08 02:24:09;;;;;;;;;2.00;0.00;;;;;-142.59;100.00;56100.38;5093264;27;49928;-71
2022/04/08 02:26:34;;;;;;;;;1.00;0.00;;;;;-142.59;100.00;56100.38;5092568;27;50505;-70
2022/04/08 02:29:00;;;;;;;;;0.50;0.25;;;;;-142.59;100.00;56100.38;5092674;27;50373;-77
2022/04/08 02:31:25;;;;;;;;;2.00;2.00;;;;;-142.59;100.00;56100.38;5092869;27;50277;-71
2022/04/08 02:33:50;;;;;;;;;1.25;1.25;;;;;-142.59;100.00;56100.38;5093009;27;49659;-74
2022/04/08 02:36:16;;;;;;;;;0.00;0.00;;;;;-142.59;100.00;56100.38;5092135;27;50758;-70
2022/04/08 02:38:41;;;;;;;;;1.00;0.00;;;;;-142.59;100.00;56100.38;5092606;27;49805;-70
2022/04/08 02:41:06;;;;;;;;;0.00;0.00;;;;;-142.59;100.00;56100.38;5091475;27;49836;-71
2022/04/08 02:43:32;;;;;;;;;0.00;0.00;;;;;-142.59;100.00;56100.38;5092856;27;49809;-73
2022/04/08 02:45:57;;;;;;;;;0.25;0.00;;;;;-142.59;100.00;56100.38;5092435;27;49881;-78
2022/04/08 02:48:22;;;;;;;;;0.00;0.00;;;;;-142.59;100.00;56100.38;5092468;27;49902;-72
2022/04/08 02:50:48;;;;;;;;;0.00;0.00;;;;;-142.59;100.00;56100.38;5092652;27;49977;-71
2022/04/08 02:53:13;;;;;;;;;0.00;0.00;;;;;-142.59;100.00;56100.38;5092865;27;49664;-70
2022/04/08 02:55:39;;;;;;;;;0.00;0.00;;;;;-142.59;100.00;56100.38;5092398;27;49687;-77
2022/04/08 02:58:04;;;;;;;;;1.00;0.00;;;;;-142.59;100.00;56100.38;5092563;27;49888;-73
2022/04/08 03:00:30;;;;;;;;;1.50;0.00;;;;;-142.59;100.00;56100.38;5092838;27;49760;-77
2022/04/08 03:02:55;;;;;;;;;2.50;0.00;;;;;-142.59;100.00;56100.38;5092784;27;49781;-77
2022/04/08 03:05:21;;;;;;;;;0.00;0.00;;;;;-142.59;100.00;56100.38;5092023;27;50555;-70
2022/04/08 03:07:46;;;;;;;;;1.00;0.00;;;;;-142.59;100.00;56100.38;5092230;27;49751;-70
2022/04/08 03:10:12;;;;;;;;;2.25;2.00;;;;;-142.59;100.00;56100.38;5092591;27;49983;-70
2022/04/08 03:12:38;;;;;;;;;1.00;0.00;;;;;-142.59;100.00;56100.38;5092530;27;50034;-70
2022/04/08 03:15:04;;;;;;;;;2.75;0.75;;;;;-142.59;100.00;56100.38;5099220;27;49679;-70
2022/04/08 03:17:30;;;;;;;;;1.00;1.00;;;;;-142.59;100.00;56100.38;5092455;27;49738;-70
2022/04/08 03:19:56;;;;;;;;;0.50;0.50;;;;;-142.59;100.00;56100.38;5092157;27;49839;-70
2022/04/08 03:22:22;;;;;;;;;1.00;0.00;;;;;-142.59;100.00;56100.38;5105618;27;49931;-70
2022/04/08 03:24:48;;;;;;;;;0.25;0.00;;;;;-142.59;100.00;56100.38;5111546;27;50815;-70
2022/04/08 03:27:14;;;;;;;;;0.00;0.00;;;;;-142.59;100.00;56100.38;5111529;27;49837;-70
2022/04/08 03:29:41;;;;;;;;;1.00;1.00;;;;;-142.59;100.00;56100.38;5111764;27;49786;-70
2022/04/08 03:32:07;;;;;;;;;2.00;1.00;;;;;-142.59;100.00;56100.38;5111933;27;49869;-69
2022/04/08 03:34:32;;;;;;;;;1.25;1.25;;;;;-142.59;100.00;56100.38;5111673;27;51605;-69
2022/04/08 03:36:58;;;;;;;;;2.00;1.00;;;;;-142.59;100.00;56100.38;5111626;27;49761;-69
2022/04/08 03:39:26;;;;;;;;;1.00;0.00;;;;;-142.59;100.00;56100.38;5127513;27;49961;-69
2022/04/08 03:41:53;;;;;;;;;1.50;1.00;;;;;-142.59;100.00;56100.38;5111216;27;49688;-69
2022/04/08 03:44:19;;;;;;;;;0.00;0.00;;;;;-142.59;100.00;56100.38;5111285;27;49918;-69
2022/04/08 03:46:46;;;;;;;;;0.00;0.00;;;;;-142.59;100.00;56100.38;5111461;27;49805;-71
2022/04/08 03:49:14;;;;;;;;;1.25;0.25;;;;;-142.59;100.00;56100.38;5111355;27;49799;-69
2022/04/08 03:51:44;;;;;;;;;2.00;0.00;;;;;-142.59;100.00;56100.38;5111616;27;49670;-70
2022/04/08 03:54:09;;;;;;;;;1.50;1.00;;;;;-142.59;100.00;56100.38;5111030;27;49839;-70
2022/04/08 03:56:41;;;;;;;;;2.25;1.00;;;;;-142.59;100.00;56100.38;5109775;27;49926;-69
2022/04/08 03:59:07;;;;;;;;;2.75;0.00;;;;;-142.59;100.00;56100.38;5127229;27;50033;-70
2022/04/08 04:01:33;;;;;;;;;1.00;1.00;;;;;-142.59;100.00;56100.38;5111358;27;49802;-69
2022/04/08 04:03:59;;;;;;;;;0.25;0.25;;;;;-142.59;100.00;56100.38;5111188;27;49796;-69
2022/04/08 04:06:24;;;;;;;;;2.00;1.00;;;;;-142.59;100.00;56100.38;5111323;27;50074;-70
2022/04/08 04:08:49;;;;;;;;;2.25;1.25;;;;;-142.59;100.00;56100.38;5111044;27;49816;-70
2022/04/08 04:11:16;;;;;;;;;0.25;0.00;;;;;-142.59;100.00;56100.38;5111330;27;49836;-70
2022/04/08 04:13:45;;;;;;;;;2.50;1.75;;;;;-142.59;100.00;56100.38;5110589;27;50046;-70
2022/04/08 04:16:11;;;;;;;;;2.25;1.00;;;;;-142.59;100.00;56100.38;5109446;27;50099;-70
2022/04/08 04:18:36;;;;;;;;;0.00;0.00;;;;;-142.59;100.00;56100.38;5110928;27;49816;-69
2022/04/08 04:21:02;;;;;;;;;3.00;1.00;;;;;-142.59;100.00;56100.38;5111155;27;49686;-70
2022/04/08 04:23:28;;;;;;;;;1.25;1.25;;;;;-142.59;100.00;56100.38;5110822;27;49818;-73
2022/04/08 04:25:53;;;;;;;;;1.00;1.00;;;;;-142.59;100.00;56100.38;5110928;27;49526;-70
2022/04/08 04:28:19;;;;;;;;;0.00;0.00;;;;;-142.59;100.00;56100.38;5110744;27;49959;-74
2022/04/08 04:30:44;;;;;;;;;1.25;0.25;;;;;-142.59;100.00;56100.38;5111002;27;49796;-76
2022/04/08 04:33:10;;;;;;;;;1.00;1.00;;;;;-142.59;100.00;56100.38;5110387;27;50631;-71
2022/04/08 04:35:36;;;;;;;;;1.25;1.25;;;;;-142.59;100.00;56100.38;5110658;27;49821;-73
2022/04/08 04:38:01;;;;;;;;;1.00;1.00;;;;;-142.59;100.00;56100.38;5110445;27;49840;-77
2022/04/08 04:40:27;;;;;;;;;3.00;1.25;;;;;-142.59;100.00;56100.38;5126823;27;49862;-74
2022/04/08 04:42:52;;;;;;;;;0.50;0.00;;;;;-142.59;100.00;56100.38;5110647;27;50861;-69
2022/04/08 04:45:18;;;;;;;;;0.25;0.00;;;;;-142.59;100.00;56100.38;5110440;27;49648;-75
2022/04/08 04:47:44;;;;;;;;;2.00;1.75;;;;;-142.59;100.00;56100.38;5110688;27;49817;-70
2022/04/08 04:50:09;;;;;;;;;2.00;2.00;;;;;-142.59;100.00;56100.38;5110681;27;49927;-70
2022/04/08 04:52:35;;;;;;;;;3.00;2.00;;;;;-142.59;100.00;56100.38;5110195;27;50315;-77
2022/04/08 04:55:02;;;;;;;;;0.50;0.50;;;;;-142.59;100.00;56100.38;5095966;27;49750;-70
2022/04/08 04:57:27;;;;;;;;;2.00;1.50;;;;;-142.59;100.00;56100.38;5090865;27;50001;-70
2022/04/08 04:59:52;;;;;;;;;1.75;0.50;;;;;-142.59;100.00;56100.38;5104127;27;49904;-70
2022/04/08 05:02:18;;;;;;;;;1.00;1.00;;;;;-142.59;100.00;56100.38;5114043;27;49940;-74
2022/04/08 05:04:43;;;;;;;;;1.50;1.50;;;;;-142.59;100.00;56100.38;5114230;27;49775;-77
2022/04/08 05:07:10;;;;;;;;;0.25;0.25;;;;;-142.59;100.00;56100.38;5113979;27;50000;-71
2022/04/08 05:09:38;;;;;;;;;4.75;1.75;;;;;-142.59;100.00;56100.38;5114109;27;49601;-77
2022/04/08 05:12:04;;;;;;;;;5.75;1.75;;;;;-142.59;100.00;56100.38;5113665;27;51070;-72
2022/04/08 05:14:29;;;;;;;;;0.50;0.50;;;;;-142.59;100.00;56100.38;5128553;27;49866;-72
2022/04/08 05:16:58;;;;;;;;;2.25;1.25;;;;;-142.59;100.00;56100.38;5114093;27;49845;-71
2022/04/08 05:19:23;;;;;;;;;0.00;0.00;;;;;-142.59;100.00;56100.38;5114339;27;50337;-75
2022/04/08 05:21:49;;;;;;;;;1.25;1.25;;;;;-142.59;100.00;56100.38;5113639;27;49859;-76
2022/04/08 05:24:14;;;;;;;;;1.00;1.00;;;;;-142.59;100.00;56100.38;5113667;27;49848;-70
2022/04/08 05:26:39;;;;;;;;;6.00;1.75;;;;;-142.59;100.00;56100.38;5113748;27;49964;-73
2022/04/08 05:29:05;;;;;;;;;0.00;0.00;;;;;-142.59;100.00;56100.38;5113459;27;49737;-77
2022/04/08 05:31:30;;;;;;;;;0.00;0.00;;;;;-142.59;100.00;56100.38;5113400;27;50464;-74
2022/04/08 05:33:55;;;;;;;;;1.00;1.00;;;;;-142.59;100.00;56100.38;5113554;27;49592;-74
2022/04/08 05:36:21;;;;;;;;;1.00;1.00;;;;;-142.59;100.00;56100.38;5113725;27;49609;-75
2022/04/08 05:38:46;;;;;;;;;1.00;1.00;;;;;-142.59;100.00;56100.38;5113857;27;49614;-77
2022/04/08 05:41:12;;;;;;;;;3.00;1.00;;;;;-142.59;100.00;56100.38;5113538;27;50327;-72
2022/04/08 05:43:37;;;;;;;;;3.00;1.00;;;;;-142.59;100.00;56100.38;5113286;27;49922;-71
2022/04/08 05:46:02;;;;;;;;;2.25;2.25;;;;;-142.59;100.00;56100.38;5113508;27;49490;-73
2022/04/08 05:48:28;;;;;;;;;1.00;1.00;;;;;-142.59;100.00;56100.38;5113552;27;50047;-71
2022/04/08 05:50:53;;;;;;;;;1.00;0.50;;;;;-142.59;100.00;56100.38;5107080;27;49962;-75
2022/04/08 05:53:19;;;;;;;;;2.25;0.25;;;;;-142.59;100.00;56100.38;5129207;27;49834;-68
2022/04/08 05:55:45;;;;;;;;;2.25;2.00;;;;;-142.59;100.00;56100.38;5113148;27;49786;-68
2022/04/08 05:58:11;;;;;;;;;1.25;1.00;;;;;-142.59;100.00;56100.38;5113294;27;49882;-66
2022/04/08 06:00:37;;;;;;;;;2.00;0.00;;;;;-142.59;100.00;56100.38;5113035;27;50365;-66
2022/04/08 06:03:02;;;;;;;;;0.00;0.00;;;;;-142.59;100.00;56100.38;5113131;27;49800;-65
2022/04/08 06:05:28;;;;;;;;;1.00;1.00;;;;;-142.59;100.00;56100.38;5112930;27;49714;-66
2022/04/08 06:07:54;;;;;;;;;1.00;1.00;;;;;-142.59;100.00;56100.38;5113287;27;49820;-66
2022/04/08 06:10:26;;;;;;;;;1.00;1.00;;;;;-142.59;100.00;56100.38;5112921;27;49780;-68
2022/04/08 06:12:52;;;;;;;;;1.25;1.00;;;;;-142.59;100.00;56100.38;5111671;27;50080;-66
2022/04/08 06:15:19;;;;;;;;;0.50;0.00;;;;;-142.59;100.00;56100.38;5113084;27;49722;-64
2022/04/08 06:17:45;;;;;;;;;2.50;2.50;;;;;-142.59;100.00;56100.38;5129148;27;50243;-68
2022/04/08 06:20:13;;;;;;;;;1.75;1.25;;;;;-142.59;100.00;56100.38;5112812;27;50055;-69
2022/04/08 06:22:42;;;;;;;;;3.00;1.00;;;;;-142.59;100.00;56100.38;5112996;27;49943;-65
2022/04/08 06:25:10;;;;;;;;;3.00;3.00;;;;;-142.59;100.00;56100.38;5113272;27;49912;-64
2022/04/08 06:27:35;;;;;;;;;2.00;1.00;;;;;-142.59;100.00;56100.38;5112810;27;49775;-67
2022/04/08 06:30:02;;;;;;;;;1.75;1.00;;;;;-142.59;100.00;56100.38;5112384;27;50628;-66
2022/04/08 06:32:27;;;;;;;;;4.00;3.00;;;;;-142.59;100.00;56100.38;5112736;27;50057;-70
2022/04/08 06:34:52;;;;;;;;;3.25;1.50;;;;;-142.59;100.00;56100.38;5112616;27;50117;-70
2022/04/08 06:37:18;;;;;;;;;1.00;1.00;;;;;-142.59;100.00;56100.38;5109145;27;49933;-67
2022/04/08 06:39:45;;;;;;;;;1.00;0.00;;;;;-142.59;100.00;56100.38;5092703;27;49993;-68
2022/04/08 06:42:11;;;;;;;;;0.00;0.00;;;;;-142.59;100.00;56100.38;5091232;27;50233;-66
2022/04/08 06:44:36;;;;;;;;;0.00;0.00;;;;;-142.59;100.00;56100.38;5092099;27;49864;-65
2022/04/08 06:47:04;;;;;;;;;1.75;1.00;;;;;-142.59;100.00;56100.38;5090767;27;49999;-76
2022/04/08 06:49:29;;;;;;;;;0.75;0.00;;;;;-142.59;100.00;56100.38;5104639;27;50508;-69
2022/04/08 06:51:58;;;;;;;;;1.00;1.00;;;;;-142.59;100.00;56100.38;5108339;27;49674;-73
2022/04/08 06:54:25;;;;;;;;;1.00;1.00;;;;;-142.59;100.00;56100.38;5112139;27;49750;-76
2022/04/08 06:56:51;;;;;;;;;2.00;1.00;;;;;-142.59;100.00;56100.38;5112380;27;49853;-72
2022/04/08 06:59:17;;;;;;;;;2.00;2.00;;;;;-142.59;100.00;56100.38;5110816;27;51335;-75
2022/04/08 07:01:42;;;;;;;;;2.00;1.00;;;;;-142.59;100.00;56100.38;5112080;27;50453;-69
2022/04/08 07:04:07;;;;;;;;;1.00;1.00;;;;;-142.59;100.00;56100.38;5112244;27;49996;-71
2022/04/08 07:06:33;;;;;;;;;0.00;0.00;;;;;-142.59;100.00;56100.38;5106996;27;49732;-75
2022/04/08 07:08:58;;;;;;;;;1.00;1.00;;;;;-142.59;100.00;56100.38;5112479;27;49901;-71
2022/04/08 07:11:24;;;;;;;;;0.25;0.25;;;;;-142.59;100.00;56100.38;5092335;27;49588;-75
2022/04/08 07:13:49;;;;;;;;;2.25;1.00;;;;;-142.59;100.00;56100.38;5091748;27;49961;-75
2022/04/08 07:16:14;;;;;;;;;1.50;1.00;;;;;-142.59;100.00;56100.38;5090834;27;49670;-70
2022/04/08 07:18:40;;;;;;;;;0.00;0.00;;;;;-142.59;100.00;56100.38;5094893;27;50980;-74
2022/04/08 07:21:06;;;;;;;;;2.00;1.00;;;;;-142.59;100.00;56100.38;5092136;27;49768;-80
2022/04/08 07:23:32;;;;;;;;;0.00;0.00;;;;;-142.59;100.00;56100.38;5094709;27;49992;-73
2022/04/08 07:25:57;;;;;;;;;2.00;1.00;;;;;-142.59;100.00;56100.38;5092404;27;49941;-72
2022/04/08 07:28:23;;;;;;;;;2.00;2.00;;;;;-142.59;100.00;56100.38;5091586;27;49693;-70
2022/04/08 07:30:49;;;;;;;;;1.75;1.00;;;;;-142.59;100.00;56100.38;5091937;27;49738;-71
2022/04/08 07:33:15;;;;;;;;;3.00;1.50;;;;;-142.59;100.00;56100.38;5091897;27;49787;-70
2022/04/08 07:35:41;;;;;;;;;1.25;1.25;;;;;-142.59;100.00;56100.38;5093417;27;50164;-70
2022/04/08 07:38:07;;;;;;;;;2.75;2.75;;;;;-142.59;100.00;56100.38;5104934;27;51057;-70
2022/04/08 07:40:32;;;;;;;;;3.00;3.00;;;;;-142.59;100.00;56100.38;5103846;27;49852;-71
2022/04/08 07:42:58;;;;;;;;;2.25;2.25;;;;;-142.59;100.00;56100.38;5106480;27;49794;-70
2022/04/08 07:45:27;;;;;;;;;2.00;2.00;;;;;-142.59;100.00;56100.38;5098491;27;49859;-69
2022/04/08 07:47:55;;;;;;;;;1.00;1.00;;;;;-142.59;100.00;56100.38;5093179;27;49713;-70
2022/04/08 07:50:20;;;;;;;;;6.00;6.00;;;;;-142.59;100.00;56100.38;5100042;27;49966;-70
2022/04/08 07:52:46;;;;;;;;;1.00;1.00;;;;;-142.59;100.00;56100.38;5104226;27;49749;-70
2022/04/08 07:55:12;;;;;;;;;2.00;2.00;;;;;-142.59;100.00;56100.38;5111494;27;50101;-70
2022/04/08 07:57:45;;;;;;;;;4.00;3.00;;;;;-142.59;100.00;56100.38;5111164;27;50132;-72
2022/04/08 08:00:11;;;;;;;;;1.00;1.00;;;;;-142.59;100.00;56100.38;5110142;27;49859;-70
2022/04/08 08:02:36;;;;;;;;;1.00;1.00;;;;;-142.59;100.00;56100.38;5099911;27;50294;-70
2022/04/08 08:05:02;;;;;;;;;2.00;2.00;;;;;-142.59;100.00;56100.38;5111419;27;49912;-70
2022/04/08 08:07:27;;;;;;;;;0.50;0.50;;;;;-142.59;100.00;56100.38;5111201;27;49904;-70
2022/04/08 08:09:53;;;;;;;;;1.00;1.00;;;;;-142.59;100.00;56100.38;5111199;27;49696;-72
2022/04/08 08:12:19;;;;;;;;;3.00;2.00;;;;;-142.59;100.00;56100.38;5111164;27;49807;-70
2022/04/08 08:14:44;;;;;;;;;3.00;2.00;;;;;-142.59;100.00;56100.38;5110937;27;49881;-77
2022/04/08 08:17:10;;;;;;;;;3.50;1.75;;;;;-142.59;100.00;56100.38;5111002;27;49636;-77
2022/04/08 08:19:36;;;;;;;;;3.75;2.50;;;;;-142.59;100.00;56100.38;5096719;27;49869;-72
2022/04/08 08:22:02;;;;;;;;;4.75;4.75;;;;;-142.59;100.00;56100.38;5091453;27;49685;-72
2022/04/08 08:24:27;;;;;;;;;6.25;3.00;;;;;-142.59;100.00;56100.38;5091571;27;50202;-73
2022/04/08 08:26:53;;;;;;;;;2.00;2.00;;;;;-142.59;100.00;56100.38;5091056;27;49757;-73
2022/04/08 08:29:18;;;;;;;;;6.00;3.75;;;;;-142.59;100.00;56100.38;5090785;27;49799;-76
2022/04/08 08:31:43;;;;;;;;;0.50;0.50;;;;;-142.59;100.00;56100.38;5089683;27;49923;-77
2022/04/08 08:34:09;;;;;;;;;2.75;1.75;;;;;-142.59;100.00;56100.38;5089949;27;49809;-75
2022/04/08 08:36:34;;;;;;;;;2.25;2.25;;;;;-142.59;100.00;56100.38;5094196;27;49730;-72
2022/04/08 08:39:00;;;;;;;;;1.50;1.25;;;;;-142.59;100.00;56100.38;5094947;27;49757;-71
2022/04/08 08:41:26;;;;;;;;;1.00;1.00;;;;;-142.59;100.00;56100.38;5094907;27;49883;-71
2022/04/08 08:43:54;;;;;;;;;1.50;1.50;;;;;-142.59;100.00;56100.38;5094720;27;49866;-72
2022/04/08 08:46:21;;;;;;;;;1.50;0.75;;;;;-142.59;100.00;56100.38;5094523;27;49868;-73
2022/04/08 08:48:50;;;;;;;;;3.75;1.75;;;;;-142.59;100.00;56100.38;5094564;27;50784;-73
2022/04/08 08:51:17;;;;;;;;;1.00;1.00;;;;;-142.59;100.00;56100.38;5094187;27;49875;-74
2022/04/08 08:53:43;;;;;;;;;1.00;1.00;;;;;-142.59;100.00;56100.38;5093241;27;49836;-71
2022/04/08 08:56:09;;;;;;;;;2.00;2.00;;;;;-142.59;100.00;56100.38;5094369;27;49868;-70
2022/04/08 08:58:34;;;;;;;;;2.25;2.25;;;;;-142.59;100.00;56100.38;5092878;27;49632;-71
2022/04/08 09:01:00;;;;;;;;;2.75;2.00;;;;;-142.59;100.00;56100.38;5094561;27;49777;-70
2022/04/08 09:03:29;;;;;;;;;2.00;2.00;;;;;-142.59;100.00;56100.38;5094579;27;49958;-70
2022/04/08 09:05:55;;;;;;;;;1.25;1.25;;;;;-142.59;100.00;56100.38;5094022;27;49999;-71
2022/04/08 09:08:21;;;;;;;;;5.25;2.00;;;;;-142.59;100.00;56100.38;5094106;27;49976;-70
2022/04/08 09:10:48;;;;;;;;;3.00;1.50;;;;;-142.59;100.00;56100.38;5094251;27;50088;-69
2022/04/08 09:13:21;;;;;;;;;2.75;2.75;;;;;-142.59;100.00;56100.38;5096332;27;50000;-70
2022/04/08 09:16:00;;;;;;;;;1.00;1.00;;;;;-142.59;100.00;56100.38;5094099;27;51180;-69
2022/04/08 09:18:32;;;;;;;;;1.00;1.00;;;;;-142.59;100.00;56100.38;5094187;27;49681;-69
2022/04/08 09:20:58;;;;;;;;;2.00;2.00;;;;;-142.59;100.00;56100.38;5099126;27;49600;-70
2022/04/08 09:23:24;;;;;;;;;0.00;0.00;;;;;-142.59;100.00;56100.38;5096812;27;49911;-70
2022/04/08 09:25:59;;;;;;;;;1.00;1.00;;;;;-142.59;100.00;56100.38;5093756;27;49693;-70
2022/04/08 09:28:24;;;;;;;;;1.00;1.00;;;;;-142.59;100.00;56100.38;5093599;27;49855;-70
2022/04/08 09:30:55;;;;;;;;;1.75;0.75;;;;;-142.59;100.00;56100.38;5094184;27;49671;-70
2022/04/08 09:33:21;;;;;;;;;0.75;0.75;;;;;-142.59;100.00;56100.38;5098999;27;49990;-72
2022/04/08 09:35:49;;;;;;;;;1.25;1.25;;;;;-142.59;100.00;56100.38;5093856;27;50722;-71
2022/04/08 09:38:20;;;;;;;;;2.25;1.75;;;;;-142.59;100.00;56100.38;5093784;27;49765;-70
2022/04/08 09:40:47;;;;;;;;;1.00;0.00;;;;;-142.59;100.00;56100.38;5093779;27;50150;-65
2022/04/08 09:43:13;;;;;;;;;1.00;1.00;;;;;-142.59;100.00;56100.38;5093627;27;50015;-73
2022/04/08 09:45:39;;;;;;;;;2.00;1.00;;;;;-142.59;100.00;56100.38;5093220;27;49840;-75
2022/04/08 09:48:07;;;;;;;;;2.25;1.00;;;;;-142.59;100.00;56100.38;5092176;27;50154;-74
2022/04/08 09:50:33;;;;;;;;;2.25;1.00;;;;;-142.59;100.00;56100.38;5097137;27;50165;-71
2022/04/08 09:52:59;;;;;;;;;2.00;2.00;;;;;-142.59;100.00;56100.38;5096008;27;50007;-73
2022/04/08 09:55:26;;;;;;;;;1.00;1.00;;;;;-142.59;100.00;56100.38;5093149;27;49868;-72
2022/04/08 09:57:56;;;;;;;;;3.00;2.75;;;;;-142.59;100.00;56100.38;5096385;27;49782;-73
2022/04/08 10:00:23;;;;;;;;;2.00;1.00;;;;;-142.59;100.00;56100.38;5091853;27;49648;-73
2022/04/08 10:02:52;;;;;;;;;5.75;3.00;;;;;-142.59;100.00;56100.38;5093543;27;49807;-74
2022/04/08 10:05:17;;;;;;;;;5.25;5.25;;;;;-142.59;100.00;56100.38;5112007;27;52291;-73
2022/04/08 10:07:48;;;;;;;;;6.00;3.50;;;;;-142.59;100.00;56100.38;5098121;27;49873;-73
2022/04/08 10:10:26;;;;;;;;;2.00;2.00;;;;;-142.59;100.00;56100.38;5099177;27;49700;-80
2022/04/08 10:13:03;;;;;;;;;9.25;3.50;;;;;-142.59;100.00;56100.38;5091962;27;49830;-74
2022/04/08 10:15:36;;;;;;;;;0.75;0.75;;;;;-142.59;100.00;56100.38;5092870;27;49834;-74
2022/04/08 10:18:05;;;;;;;;;1.25;1.25;;;;;-142.59;100.00;56100.38;5093885;27;49900;-76
2022/04/08 10:20:32;;;;;;;;;6.25;5.50;;;;;-142.59;100.00;56100.38;5093056;27;49822;-80
2022/04/08 10:23:11;;;;;;;;;4.50;4.50;;;;;-142.59;100.00;56100.38;5091897;27;50027;-76
2022/04/08 10:25:47;;;;;;;;;2.50;2.50;;;;;-142.59;100.00;56100.38;5091637;27;52366;-85
2022/04/08 10:28:12;;;;;;;;;5.00;2.50;;;;;-142.59;100.00;56100.38;5091418;27;49764;-81
2022/04/08 10:30:46;;;;;;;;;3.00;3.00;;;;;-142.59;100.00;56100.38;5093202;27;49569;-78
2022/04/08 10:33:13;;;;;;;;;3.50;2.50;;;;;-142.59;100.00;56100.38;5091762;27;50142;-79
2022/04/08 10:35:50;;;;;;;;;4.50;2.50;;;;;-142.59;100.00;56100.38;5090988;27;52003;-74
2022/04/08 10:38:15;;;;;;;;;7.50;6.50;;;;;-142.59;100.00;56100.38;5092976;27;50106;-72
2022/04/08 10:40:43;;;;;;;;;3.00;2.00;;;;;-142.59;100.00;56100.38;5093774;27;49616;-78
2022/04/08 10:43:14;;;;;;;;;3.00;3.00;;;;;-142.59;100.00;56100.38;5091223;27;49955;-79
2022/04/08 10:45:58;;;;;;;;;5.00;2.25;;;;;-142.59;100.00;56100.38;5092926;27;50962;-77
2022/04/08 10:48:46;;;;;;;;;0.00;0.00;;;;;-142.59;100.00;56100.38;5096780;27;49774;-78
2022/04/08 10:51:18;;;;;;;;;1.75;1.75;;;;;-142.59;100.00;56100.38;5090924;27;49565;-78
2022/04/08 10:53:44;;;;;;;;;1.00;1.00;;;;;-142.59;100.00;56100.38;5091268;27;49834;-77
2022/04/08 10:56:13;;;;;;;;;1.00;1.00;;;;;-142.59;100.00;56100.38;5094898;27;49929;-76
2022/04/08 10:58:46;;;;;;;;;1.00;1.00;;;;;-142.59;100.00;56100.38;5094143;27;49777;-76
2022/04/08 11:01:25;;;;;;;;;1.00;1.00;;;;;-142.59;100.00;56100.38;5109387;27;49676;-75
2022/04/08 11:03:55;;;;;;;;;0.75;0.75;;;;;-142.59;100.00;56100.38;5093129;27;49886;-76
2022/04/08 11:06:21;;;;;;;;;2.25;2.25;;;;;-142.59;100.00;56100.38;5090811;27;52248;-77